createdAt,value
2019-03-20T00:00:44.275Z,1017.98
2019-03-20T00:01:44.125Z,1018.01
2019-03-20T00:02:43.411Z,1018.03
2019-03-20T00:03:43.401Z,1018.00
2019-03-20T00:04:49.769Z,1017.97
2019-03-20T00:05:43.375Z,1017.99
2019-03-20T00:06:43.393Z,1018.02
2019-03-20T00:07:43.360Z,1018.01
2019-03-20T00:08:43.343Z,1018.01
2019-03-20T00:09:43.346Z,1017.97
2019-03-20T00:10:43.369Z,1017.99
2019-03-20T00:11:43.313Z,1018.02
2019-03-20T00:12:43.295Z,1017.99
2019-03-20T00:13:43.325Z,1018.00
2019-03-20T00:14:43.285Z,1018.05
2019-03-20T00:15:43.302Z,1017.97
2019-03-20T00:16:43.267Z,1017.97
2019-03-20T00:17:43.264Z,1018.01
2019-03-20T00:18:43.231Z,1018.04
2019-03-20T00:19:43.781Z,1018.02
2019-03-20T00:20:43.245Z,1017.97
2019-03-20T00:21:43.231Z,1018.01
2019-03-20T00:22:43.546Z,1017.97
2019-03-20T00:23:43.187Z,1017.98
2019-03-20T00:24:43.168Z,1018.01
2019-03-20T00:25:43.163Z,1018.03
2019-03-20T00:26:43.151Z,1018.05
2019-03-20T00:27:43.165Z,1018.01
2019-03-20T00:28:43.137Z,1018.11
2019-03-20T00:29:43.117Z,1018.02
2019-03-20T00:30:43.102Z,1018.15
2019-03-20T00:31:43.099Z,1018.09
2019-03-20T00:32:43.096Z,1018.12
2019-03-20T00:33:43.102Z,1018.06
2019-03-20T00:34:43.065Z,1018.08
2019-03-20T00:35:43.047Z,1018.06
2019-03-20T00:36:43.040Z,1018.10
2019-03-20T00:37:43.059Z,1018.12
2019-03-20T00:38:43.077Z,1018.16
2019-03-20T00:39:43.027Z,1018.14
2019-03-20T00:40:42.999Z,1018.15
2019-03-20T00:41:42.997Z,1018.18
2019-03-20T00:42:42.981Z,1018.16
2019-03-20T00:43:45.766Z,1018.15
2019-03-20T00:44:42.955Z,1018.16
2019-03-20T00:45:42.941Z,1018.16
2019-03-20T00:46:45.751Z,1018.14
2019-03-20T00:47:42.927Z,1018.17
2019-03-20T00:48:42.913Z,1018.16
2019-03-20T00:49:42.928Z,1018.13
2019-03-20T00:50:42.888Z,1018.19
2019-03-20T00:51:42.884Z,1018.16
2019-03-20T00:52:42.871Z,1018.14
2019-03-20T00:53:42.858Z,1018.18
2019-03-20T00:54:42.885Z,1018.17
2019-03-20T00:55:42.833Z,1018.19
2019-03-20T00:56:42.852Z,1018.23
2019-03-20T00:57:42.809Z,1018.20
2019-03-20T00:58:42.845Z,1018.17
2019-03-20T00:59:42.848Z,1018.18
2019-03-20T01:00:42.777Z,1018.14
2019-03-20T01:01:42.777Z,1018.17
2019-03-20T01:02:42.777Z,1018.16
2019-03-20T01:03:42.793Z,1018.18
2019-03-20T01:04:42.745Z,1018.20
2019-03-20T01:05:42.791Z,1018.21
2019-03-20T01:06:42.732Z,1018.18
2019-03-20T01:07:42.740Z,1018.20
2019-03-20T01:08:42.695Z,1018.21
2019-03-20T01:09:42.706Z,1018.17
2019-03-20T01:10:42.699Z,1018.15
2019-03-20T01:11:42.665Z,1018.16
2019-03-20T01:12:42.661Z,1018.15
2019-03-20T01:13:42.671Z,1018.12
2019-03-20T01:14:42.631Z,1018.13
2019-03-20T01:15:42.620Z,1018.07
2019-03-20T01:16:42.609Z,1018.14
2019-03-20T01:17:42.628Z,1018.09
2019-03-20T01:18:42.613Z,1018.04
2019-03-20T01:19:42.583Z,1018.06
2019-03-20T01:20:42.577Z,1018.04
2019-03-20T01:21:42.554Z,1018.05
2019-03-20T01:22:42.552Z,1018.04
2019-03-20T01:23:42.561Z,1018.06
2019-03-20T01:24:42.527Z,1018.08
2019-03-20T01:25:42.513Z,1018.08
2019-03-20T01:26:42.514Z,1018.10
2019-03-20T01:27:42.491Z,1018.09
2019-03-20T01:28:42.504Z,1018.09
2019-03-20T01:29:42.462Z,1018.11
2019-03-20T01:30:42.450Z,1018.07
2019-03-20T01:31:42.444Z,1018.09
2019-03-20T01:32:45.251Z,1018.08
2019-03-20T01:33:42.421Z,1018.05
2019-03-20T01:34:42.439Z,1018.03
2019-03-20T01:35:42.404Z,1018.06
2019-03-20T01:36:42.419Z,1018.09
2019-03-20T01:37:42.399Z,1018.08
2019-03-20T01:38:42.425Z,1018.11
2019-03-20T01:39:42.359Z,1018.09
2019-03-20T01:40:42.410Z,1018.09
2019-03-20T01:41:42.355Z,1018.08
2019-03-20T01:42:42.346Z,1018.07
2019-03-20T01:43:42.335Z,1018.08
2019-03-20T01:44:42.312Z,1018.04
2019-03-20T01:46:41.316Z,1018.04
2019-03-20T01:47:42.279Z,1018.07
2019-03-20T01:48:42.273Z,1018.06
2019-03-20T01:49:42.252Z,1018.06
2019-03-20T01:50:42.244Z,1018.06
2019-03-20T01:51:42.250Z,1018.11
2019-03-20T01:52:42.228Z,1018.09
2019-03-20T01:53:42.244Z,1018.14
2019-03-20T01:54:42.194Z,1018.11
2019-03-20T01:55:42.178Z,1018.17
2019-03-20T01:56:42.194Z,1018.07
2019-03-20T01:57:42.162Z,1018.13
2019-03-20T01:58:42.182Z,1018.14
2019-03-20T01:59:42.146Z,1018.12
2019-03-20T02:00:42.130Z,1018.12
2019-03-20T02:01:42.126Z,1018.14
2019-03-20T02:02:42.136Z,1018.15
2019-03-20T02:03:44.752Z,1018.12
2019-03-20T02:04:44.728Z,1018.13
2019-03-20T02:05:42.078Z,1018.11
2019-03-20T02:06:42.074Z,1018.13
2019-03-20T02:07:42.107Z,1018.12
2019-03-20T02:08:42.052Z,1018.11
2019-03-20T02:09:42.044Z,1018.15
2019-03-20T02:10:42.022Z,1018.10
2019-03-20T02:11:42.018Z,1018.13
2019-03-20T02:12:42.010Z,1018.17
2019-03-20T02:13:42.024Z,1018.16
2019-03-20T02:14:41.982Z,1018.17
2019-03-20T02:15:41.995Z,1018.17
2019-03-20T02:16:41.962Z,1018.18
2019-03-20T02:17:41.956Z,1018.23
2019-03-20T02:18:41.986Z,1018.21
2019-03-20T02:19:41.942Z,1018.21
2019-03-20T02:20:41.921Z,1018.21
2019-03-20T02:21:41.910Z,1018.22
2019-03-20T02:22:41.896Z,1018.22
2019-03-20T02:23:41.890Z,1018.23
2019-03-20T02:24:41.930Z,1018.25
2019-03-20T02:25:41.885Z,1018.24
2019-03-20T02:26:41.854Z,1018.20
2019-03-20T02:27:41.840Z,1018.23
2019-03-20T02:28:41.848Z,1018.22
2019-03-20T02:29:41.821Z,1018.27
2019-03-20T02:30:41.838Z,1018.23
2019-03-20T02:31:41.797Z,1018.29
2019-03-20T02:32:41.799Z,1018.25
2019-03-20T02:33:41.772Z,1018.31
2019-03-20T02:34:41.778Z,1018.27
2019-03-20T02:35:51.420Z,1018.32
2019-03-20T02:36:41.783Z,1018.31
2019-03-20T02:37:41.736Z,1018.29
2019-03-20T02:38:41.757Z,1018.28
2019-03-20T02:39:41.710Z,1018.28
2019-03-20T02:40:41.701Z,1018.32
2019-03-20T02:41:41.701Z,1018.33
2019-03-20T02:42:41.707Z,1018.30
2019-03-20T02:43:41.681Z,1018.33
2019-03-20T02:44:41.662Z,1018.33
2019-03-20T02:45:41.668Z,1018.32
2019-03-20T02:46:41.675Z,1018.33
2019-03-20T02:47:41.642Z,1018.34
2019-03-20T02:48:41.612Z,1018.36
2019-03-20T02:49:40.603Z,1018.38
2019-03-20T02:50:41.596Z,1018.39
2019-03-20T02:51:41.611Z,1018.36
2019-03-20T02:52:41.598Z,1018.39
2019-03-20T02:53:41.566Z,1018.39
2019-03-20T02:54:41.550Z,1018.38
2019-03-20T02:55:41.559Z,1018.35
2019-03-20T02:56:41.655Z,1018.38
2019-03-20T02:57:41.562Z,1018.33
2019-03-20T02:58:41.506Z,1018.35
2019-03-20T02:59:41.495Z,1018.34
2019-03-20T03:00:41.514Z,1018.30
2019-03-20T03:01:41.490Z,1018.33
2019-03-20T03:02:41.492Z,1018.34
2019-03-20T03:03:41.493Z,1018.38
2019-03-20T03:04:41.447Z,1018.36
2019-03-20T03:05:41.442Z,1018.36
2019-03-20T03:06:41.423Z,1018.35
2019-03-20T03:07:41.413Z,1018.39
2019-03-20T03:08:41.419Z,1018.37
2019-03-20T03:09:41.419Z,1018.38
2019-03-20T03:10:41.397Z,1018.41
2019-03-20T03:11:41.394Z,1018.49
2019-03-20T03:12:41.350Z,1018.43
2019-03-20T03:13:41.346Z,1018.46
2019-03-20T03:14:41.382Z,1018.48
2019-03-20T03:15:41.327Z,1018.50
2019-03-20T03:16:41.318Z,1018.49
2019-03-20T03:17:41.329Z,1018.49
2019-03-20T03:18:41.288Z,1018.55
2019-03-20T03:19:41.306Z,1018.52
2019-03-20T03:20:41.280Z,1018.49
2019-03-20T03:21:41.263Z,1018.55
2019-03-20T03:22:41.261Z,1018.54
2019-03-20T03:23:41.266Z,1018.53
2019-03-20T03:24:41.236Z,1018.55
2019-03-20T03:25:41.230Z,1018.52
2019-03-20T03:26:41.211Z,1018.53
2019-03-20T03:27:41.232Z,1018.48
2019-03-20T03:28:41.188Z,1018.51
2019-03-20T03:29:41.194Z,1018.55
2019-03-20T03:30:41.177Z,1018.53
2019-03-20T03:31:41.161Z,1018.52
2019-03-20T03:32:41.183Z,1018.51
2019-03-20T03:33:41.159Z,1018.56
2019-03-20T03:34:41.124Z,1018.59
2019-03-20T03:35:41.113Z,1018.60
2019-03-20T03:36:41.141Z,1018.64
2019-03-20T03:37:41.096Z,1018.64
2019-03-20T03:38:43.741Z,1018.65
2019-03-20T03:39:41.099Z,1018.62
2019-03-20T03:40:41.103Z,1018.68
2019-03-20T03:41:41.051Z,1018.64
2019-03-20T03:42:41.036Z,1018.67
2019-03-20T03:43:41.027Z,1018.66
2019-03-20T03:44:41.015Z,1018.66
2019-03-20T03:45:41.054Z,1018.71
2019-03-20T03:46:41.020Z,1018.75
2019-03-20T03:47:40.989Z,1018.75
2019-03-20T03:48:41.707Z,1018.74
2019-03-20T03:49:40.984Z,1018.83
2019-03-20T03:50:40.979Z,1018.77
2019-03-20T03:51:40.985Z,1018.80
2019-03-20T03:52:40.959Z,1018.78
2019-03-20T03:53:40.936Z,1018.77
2019-03-20T03:54:40.923Z,1018.76
2019-03-20T03:55:40.894Z,1018.78
2019-03-20T03:56:40.942Z,1018.77
2019-03-20T03:57:40.956Z,1018.81
2019-03-20T03:58:40.929Z,1018.78
2019-03-20T03:59:40.889Z,1018.80
2019-03-20T04:00:40.904Z,1018.80
2019-03-20T04:01:40.901Z,1018.81
2019-03-20T04:02:40.833Z,1018.84
2019-03-20T04:03:40.821Z,1018.82
2019-03-20T04:04:40.821Z,1018.84
2019-03-20T04:05:40.786Z,1018.76
2019-03-20T04:06:40.798Z,1018.83
2019-03-20T04:07:40.817Z,1018.88
2019-03-20T04:08:40.768Z,1018.86
2019-03-20T04:09:40.740Z,1018.86
2019-03-20T04:10:40.767Z,1018.90
2019-03-20T04:11:40.744Z,1018.88
2019-03-20T04:12:40.713Z,1018.91
2019-03-20T04:13:40.729Z,1018.85
2019-03-20T04:14:40.686Z,1018.83
2019-03-20T04:15:40.677Z,1018.83
2019-03-20T04:16:40.699Z,1018.89
2019-03-20T04:17:40.690Z,1018.92
2019-03-20T04:18:40.644Z,1018.95
2019-03-20T04:19:40.640Z,1018.97
2019-03-20T04:20:40.631Z,1018.93
2019-03-20T04:21:40.607Z,1018.91
2019-03-20T04:22:40.612Z,1018.92
2019-03-20T04:23:40.598Z,1018.95
2019-03-20T04:24:40.577Z,1018.95
2019-03-20T04:25:40.567Z,1019.01
2019-03-20T04:26:40.565Z,1018.96
2019-03-20T04:27:40.564Z,1018.99
2019-03-20T04:28:40.534Z,1018.99
2019-03-20T04:29:40.547Z,1019.02
2019-03-20T04:30:40.551Z,1019.00
2019-03-20T04:31:40.523Z,1019.03
2019-03-20T04:32:40.517Z,1019.01
2019-03-20T04:33:40.483Z,1018.97
2019-03-20T04:34:40.492Z,1018.96
2019-03-20T04:36:47.501Z,1019.00
2019-03-20T04:37:40.451Z,1019.00
2019-03-20T04:38:40.440Z,1019.04
2019-03-20T04:39:40.422Z,1019.04
2019-03-20T04:40:40.484Z,1019.09
2019-03-20T04:41:40.460Z,1019.08
2019-03-20T04:42:40.385Z,1019.05
2019-03-20T04:43:40.374Z,1019.06
2019-03-20T04:44:40.361Z,1019.05
2019-03-20T04:45:40.354Z,1019.08
2019-03-20T04:46:40.383Z,1019.10
2019-03-20T04:47:40.330Z,1019.13
2019-03-20T04:48:40.325Z,1019.14
2019-03-20T04:49:40.314Z,1019.14
2019-03-20T04:50:40.309Z,1019.10
2019-03-20T04:51:40.307Z,1019.12
2019-03-20T04:52:40.283Z,1019.15
2019-03-20T04:53:40.263Z,1019.14
2019-03-20T04:54:40.253Z,1019.17
2019-03-20T04:55:40.253Z,1019.20
2019-03-20T04:56:40.265Z,1019.19
2019-03-20T04:57:40.241Z,1019.24
2019-03-20T04:58:40.207Z,1019.15
2019-03-20T04:59:40.210Z,1019.17
2019-03-20T05:00:40.185Z,1019.21
2019-03-20T05:01:43.231Z,1019.23
2019-03-20T05:02:40.192Z,1019.28
2019-03-20T05:03:40.184Z,1019.29
2019-03-20T05:04:40.145Z,1019.33
2019-03-20T05:05:40.174Z,1019.32
2019-03-20T05:06:40.181Z,1019.34
2019-03-20T05:07:40.128Z,1019.31
2019-03-20T05:08:40.125Z,1019.32
2019-03-20T05:09:40.126Z,1019.29
2019-03-20T05:10:40.080Z,1019.31
2019-03-20T05:11:40.100Z,1019.30
2019-03-20T05:12:40.058Z,1019.36
2019-03-20T05:13:42.688Z,1019.36
2019-03-20T05:14:40.043Z,1019.34
2019-03-20T05:15:40.017Z,1019.30
2019-03-20T05:16:40.015Z,1019.33
2019-03-20T05:17:40.036Z,1019.32
2019-03-20T05:18:40.001Z,1019.33
2019-03-20T05:19:39.979Z,1019.35
2019-03-20T05:20:39.965Z,1019.36
2019-03-20T05:21:39.961Z,1019.33
2019-03-20T05:22:39.951Z,1019.34
2019-03-20T05:23:39.981Z,1019.34
2019-03-20T05:24:42.689Z,1019.35
2019-03-20T05:25:39.924Z,1019.36
2019-03-20T05:26:39.923Z,1019.36
2019-03-20T05:27:39.935Z,1019.42
2019-03-20T05:28:39.879Z,1019.47
2019-03-20T05:29:39.913Z,1019.44
2019-03-20T05:30:39.871Z,1019.46
2019-03-20T05:31:39.853Z,1019.50
2019-03-20T05:32:39.847Z,1019.50
2019-03-20T05:33:40.245Z,1019.48
2019-03-20T05:34:39.821Z,1019.49
2019-03-20T05:35:39.806Z,1019.52
2019-03-20T05:36:39.798Z,1019.48
2019-03-20T05:37:39.804Z,1019.51
2019-03-20T05:38:40.219Z,1019.49
2019-03-20T05:39:39.780Z,1019.49
2019-03-20T05:40:39.758Z,1019.52
2019-03-20T05:41:40.667Z,1019.51
2019-03-20T05:42:39.733Z,1019.52
2019-03-20T05:43:39.751Z,1019.53
2019-03-20T05:44:39.715Z,1019.54
2019-03-20T05:45:39.710Z,1019.57
2019-03-20T05:46:39.686Z,1019.60
2019-03-20T05:47:39.679Z,1019.57
2019-03-20T05:48:39.727Z,1019.60
2019-03-20T05:49:39.680Z,1019.61
2019-03-20T05:50:39.645Z,1019.69
2019-03-20T05:51:39.629Z,1019.68
2019-03-20T05:52:39.623Z,1019.68
2019-03-20T05:53:39.607Z,1019.68
2019-03-20T05:54:39.599Z,1019.71
2019-03-20T05:55:39.617Z,1019.74
2019-03-20T05:56:39.579Z,1019.73
2019-03-20T05:57:39.583Z,1019.72
2019-03-20T05:58:39.560Z,1019.71
2019-03-20T05:59:39.546Z,1019.78
2019-03-20T06:00:39.543Z,1019.73
2019-03-20T06:01:39.574Z,1019.73
2019-03-20T06:02:39.513Z,1019.78
2019-03-20T06:03:39.504Z,1019.70
2019-03-20T06:04:39.487Z,1019.68
2019-03-20T06:05:39.499Z,1019.72
2019-03-20T06:06:39.508Z,1019.71
2019-03-20T06:07:39.463Z,1019.81
2019-03-20T06:08:39.444Z,1019.85
2019-03-20T06:09:39.458Z,1019.93
2019-03-20T06:10:39.423Z,1019.92
2019-03-20T06:11:39.451Z,1019.94
2019-03-20T06:12:39.405Z,1019.97
2019-03-20T06:13:39.395Z,1019.98
2019-03-20T06:14:39.416Z,1019.95
2019-03-20T06:15:39.374Z,1020.00
2019-03-20T06:16:39.369Z,1019.99
2019-03-20T06:17:39.354Z,1020.03
2019-03-20T06:18:39.339Z,1020.06
2019-03-20T06:19:39.381Z,1020.05
2019-03-20T06:20:39.322Z,1020.05
2019-03-20T06:21:39.343Z,1020.03
2019-03-20T06:22:39.296Z,1020.05
2019-03-20T06:23:39.293Z,1020.07
2019-03-20T06:24:39.277Z,1020.10
2019-03-20T06:25:39.261Z,1020.13
2019-03-20T06:26:39.263Z,1020.08
2019-03-20T06:27:39.285Z,1020.13
2019-03-20T06:28:39.229Z,1020.15
2019-03-20T06:29:39.219Z,1020.14
2019-03-20T06:30:39.216Z,1020.14
2019-03-20T06:31:39.199Z,1020.17
2019-03-20T06:32:39.190Z,1020.18
2019-03-20T06:33:39.206Z,1020.16
2019-03-20T06:34:39.171Z,1020.14
2019-03-20T06:35:39.157Z,1020.18
2019-03-20T06:36:39.160Z,1020.15
2019-03-20T06:37:39.137Z,1020.15
2019-03-20T06:38:39.119Z,1020.16
2019-03-20T06:39:39.153Z,1020.15
2019-03-20T06:40:39.102Z,1020.13
2019-03-20T06:41:39.136Z,1020.21
2019-03-20T06:42:39.085Z,1020.14
2019-03-20T06:43:39.649Z,1020.13
2019-03-20T06:44:39.062Z,1020.19
2019-03-20T06:45:41.651Z,1020.15
2019-03-20T06:47:38.066Z,1020.13
2019-03-20T06:48:39.012Z,1020.13
2019-03-20T06:49:39.689Z,1020.10
2019-03-20T06:50:38.998Z,1020.14
2019-03-20T06:51:38.991Z,1020.14
2019-03-20T06:52:38.999Z,1020.19
2019-03-20T06:53:38.957Z,1020.13
2019-03-20T06:54:39.645Z,1020.16
2019-03-20T06:55:38.939Z,1020.20
2019-03-20T06:56:38.928Z,1020.19
2019-03-20T06:57:38.916Z,1020.19
2019-03-20T06:58:38.935Z,1020.15
2019-03-20T06:59:38.923Z,1020.14
2019-03-20T07:00:38.906Z,1020.14
2019-03-20T07:01:38.915Z,1020.18
2019-03-20T07:02:38.875Z,1020.17
2019-03-20T07:03:38.859Z,1020.17
2019-03-20T07:04:38.871Z,1020.18
2019-03-20T07:05:38.831Z,1020.21
2019-03-20T07:06:38.820Z,1020.23
2019-03-20T07:07:43.934Z,1020.27
2019-03-20T07:08:38.825Z,1020.22
2019-03-20T07:09:38.798Z,1020.26
2019-03-20T07:10:38.778Z,1020.22
2019-03-20T07:11:38.776Z,1020.30
2019-03-20T07:12:38.766Z,1020.32
2019-03-20T07:13:38.741Z,1020.33
2019-03-20T07:14:38.776Z,1020.35
2019-03-20T07:15:38.731Z,1020.37
2019-03-20T07:16:41.643Z,1020.30
2019-03-20T07:17:38.698Z,1020.34
2019-03-20T07:18:38.684Z,1020.31
2019-03-20T07:19:38.673Z,1020.34
2019-03-20T07:20:38.709Z,1020.40
2019-03-20T07:21:38.653Z,1020.35
2019-03-20T07:22:38.649Z,1020.35
2019-03-20T07:23:38.667Z,1020.38
2019-03-20T07:24:38.627Z,1020.44
2019-03-20T07:25:38.611Z,1020.39
2019-03-20T07:26:38.599Z,1020.49
2019-03-20T07:27:38.598Z,1020.47
2019-03-20T07:28:38.603Z,1020.45
2019-03-20T07:29:38.598Z,1020.49
2019-03-20T07:30:38.563Z,1020.49
2019-03-20T07:31:38.546Z,1020.52
2019-03-20T07:32:38.531Z,1020.52
2019-03-20T07:33:38.530Z,1020.52
2019-03-20T07:34:38.517Z,1020.50
2019-03-20T07:35:38.514Z,1020.54
2019-03-20T07:36:38.493Z,1020.57
2019-03-20T07:37:38.484Z,1020.55
2019-03-20T07:38:38.468Z,1020.51
2019-03-20T07:39:38.460Z,1020.50
2019-03-20T07:40:38.458Z,1020.49
2019-03-20T07:41:38.452Z,1020.49
2019-03-20T07:43:38.133Z,1020.56
2019-03-20T07:44:38.409Z,1020.60
2019-03-20T07:45:38.393Z,1020.61
2019-03-20T07:46:38.442Z,1020.63
2019-03-20T07:47:38.381Z,1020.63
2019-03-20T07:48:40.656Z,1020.69
2019-03-20T07:49:38.353Z,1020.68
2019-03-20T07:50:38.344Z,1020.66
2019-03-20T07:51:38.326Z,1020.65
2019-03-20T07:52:38.322Z,1020.65
2019-03-20T07:53:38.336Z,1020.67
2019-03-20T07:54:38.323Z,1020.68
2019-03-20T07:55:38.288Z,1020.69
2019-03-20T07:56:38.274Z,1020.69
2019-03-20T07:57:38.269Z,1020.72
2019-03-20T07:58:38.261Z,1020.71
2019-03-20T07:59:38.288Z,1020.70
2019-03-20T08:00:41.125Z,1020.69
2019-03-20T08:01:38.226Z,1020.73
2019-03-20T08:02:38.216Z,1020.68
2019-03-20T08:03:38.195Z,1020.75
2019-03-20T08:04:39.125Z,1020.70
2019-03-20T08:05:38.201Z,1020.68
2019-03-20T08:06:38.268Z,1020.66
2019-03-20T08:07:38.157Z,1020.65
2019-03-20T08:08:38.181Z,1020.58
2019-03-20T08:09:38.224Z,1020.67
2019-03-20T08:10:38.129Z,1020.62
2019-03-20T08:11:38.123Z,1020.68
2019-03-20T08:12:38.125Z,1020.70
2019-03-20T08:13:38.122Z,1020.72
2019-03-20T08:14:38.079Z,1020.69
2019-03-20T08:15:38.070Z,1020.73
2019-03-20T08:16:38.065Z,1020.71
2019-03-20T08:17:38.046Z,1020.75
2019-03-20T08:18:38.080Z,1020.77
2019-03-20T08:19:38.041Z,1020.78
2019-03-20T08:20:38.020Z,1020.76
2019-03-20T08:21:38.002Z,1020.78
2019-03-20T08:22:38.016Z,1020.77
2019-03-20T08:23:38.033Z,1020.74
2019-03-20T08:24:38.023Z,1020.73
2019-03-20T08:25:37.956Z,1020.74
2019-03-20T08:26:37.947Z,1020.72
2019-03-20T08:27:37.935Z,1020.70
2019-03-20T08:28:37.933Z,1020.75
2019-03-20T08:29:37.911Z,1020.67
2019-03-20T08:30:38.266Z,1020.72
2019-03-20T08:31:37.898Z,1020.72
2019-03-20T08:32:37.869Z,1020.67
2019-03-20T08:33:37.875Z,1020.72
2019-03-20T08:34:37.871Z,1020.68
2019-03-20T08:35:37.855Z,1020.69
2019-03-20T08:36:37.861Z,1020.70
2019-03-20T08:37:37.823Z,1020.69
2019-03-20T08:38:37.810Z,1020.75
2019-03-20T08:39:38.633Z,1020.74
2019-03-20T08:40:37.800Z,1020.76
2019-03-20T08:41:37.791Z,1020.72
2019-03-20T08:42:37.792Z,1020.78
2019-03-20T08:43:37.784Z,1020.83
2019-03-20T08:44:37.748Z,1020.79
2019-03-20T08:45:37.742Z,1020.80
2019-03-20T08:46:37.722Z,1020.88
2019-03-20T08:47:37.712Z,1020.85
2019-03-20T08:48:37.723Z,1020.81
2019-03-20T08:49:37.698Z,1020.89
2019-03-20T08:50:37.670Z,1020.86
2019-03-20T08:51:38.606Z,1020.86
2019-03-20T08:52:37.662Z,1020.83
2019-03-20T08:53:37.663Z,1020.89
2019-03-20T08:54:37.639Z,1020.86
2019-03-20T08:55:37.624Z,1020.88
2019-03-20T08:56:37.620Z,1020.89
2019-03-20T08:57:37.613Z,1020.81
2019-03-20T08:58:37.595Z,1020.81
2019-03-20T08:59:39.161Z,1020.80
2019-03-20T09:00:37.573Z,1020.84
2019-03-20T09:01:37.560Z,1020.87
2019-03-20T09:02:37.544Z,1020.88
2019-03-20T09:03:37.572Z,1020.82
2019-03-20T09:04:37.529Z,1020.80
2019-03-20T09:05:37.517Z,1020.85
2019-03-20T09:06:37.536Z,1020.89
2019-03-20T09:07:46.908Z,1020.90
2019-03-20T09:08:37.503Z,1020.89
2019-03-20T09:09:37.473Z,1020.92
2019-03-20T09:10:37.468Z,1020.90
2019-03-20T09:11:37.454Z,1020.90
2019-03-20T09:12:37.444Z,1020.91
2019-03-20T09:13:37.440Z,1020.94
2019-03-20T09:14:37.646Z,1020.93
2019-03-20T09:15:37.415Z,1020.96
2019-03-20T09:16:40.100Z,1020.95
2019-03-20T09:17:37.386Z,1020.94
2019-03-20T09:18:37.383Z,1020.98
2019-03-20T09:19:37.367Z,1020.94
2019-03-20T09:20:37.411Z,1020.95
2019-03-20T09:21:37.382Z,1020.95
2019-03-20T09:22:37.332Z,1020.98
2019-03-20T09:23:37.336Z,1020.99
2019-03-20T09:24:37.306Z,1021.03
2019-03-20T09:25:37.300Z,1021.07
2019-03-20T09:26:37.326Z,1021.06
2019-03-20T09:27:37.282Z,1021.09
2019-03-20T09:28:37.269Z,1021.03
2019-03-20T09:29:38.107Z,1021.12
2019-03-20T09:30:37.403Z,1021.10
2019-03-20T09:31:37.257Z,1021.11
2019-03-20T09:32:40.105Z,1021.13
2019-03-20T09:33:37.211Z,1021.09
2019-03-20T09:34:37.200Z,1021.05
2019-03-20T09:35:37.215Z,1021.07
2019-03-20T09:36:43.197Z,1021.06
2019-03-20T09:37:37.170Z,1021.04
2019-03-20T09:38:43.348Z,1021.08
2019-03-20T09:39:37.147Z,1021.09
2019-03-20T09:40:37.142Z,1021.09
2019-03-20T09:41:37.126Z,1021.02
2019-03-20T09:42:37.166Z,1020.99
2019-03-20T09:43:37.104Z,1020.99
2019-03-20T09:44:37.092Z,1020.95
2019-03-20T09:45:37.078Z,1020.99
2019-03-20T09:46:39.599Z,1021.03
2019-03-20T09:47:37.052Z,1021.05
2019-03-20T09:48:37.070Z,1021.07
2019-03-20T09:49:37.052Z,1021.15
2019-03-20T09:50:37.028Z,1021.10
2019-03-20T09:51:37.011Z,1021.15
2019-03-20T09:52:37.005Z,1021.16
2019-03-20T09:53:37.019Z,1021.15
2019-03-20T09:54:36.995Z,1021.11
2019-03-20T09:55:36.967Z,1021.11
2019-03-20T09:56:36.957Z,1021.09
2019-03-20T09:57:36.957Z,1021.15
2019-03-20T09:58:36.959Z,1021.12
2019-03-20T09:59:36.946Z,1021.17
2019-03-20T10:00:36.918Z,1021.10
2019-03-20T10:01:36.928Z,1021.17
2019-03-20T10:02:35.914Z,1021.20
2019-03-20T10:03:36.892Z,1021.18
2019-03-20T10:04:36.899Z,1021.18
2019-03-20T10:05:36.856Z,1021.19
2019-03-20T10:06:36.847Z,1021.20
2019-03-20T10:07:36.839Z,1021.20
2019-03-20T10:08:36.825Z,1021.20
2019-03-20T10:09:36.809Z,1021.10
2019-03-20T10:10:36.836Z,1021.10
2019-03-20T10:11:36.791Z,1021.10
2019-03-20T10:12:36.807Z,1021.17
2019-03-20T10:13:36.774Z,1021.14
2019-03-20T10:14:39.602Z,1021.08
2019-03-20T10:15:36.750Z,1021.11
2019-03-20T10:16:36.755Z,1021.13
2019-03-20T10:17:36.722Z,1021.11
2019-03-20T10:18:36.727Z,1021.09
2019-03-20T10:19:36.714Z,1021.14
2019-03-20T10:20:36.801Z,1021.17
2019-03-20T10:21:36.688Z,1021.19
2019-03-20T10:22:38.899Z,1021.15
2019-03-20T10:23:36.661Z,1021.22
2019-03-20T10:24:36.832Z,1021.16
2019-03-20T10:25:44.646Z,1021.16
2019-03-20T10:26:36.652Z,1021.17
2019-03-20T10:27:36.644Z,1021.12
2019-03-20T10:28:36.610Z,1021.13
2019-03-20T10:29:36.612Z,1021.12
2019-03-20T10:30:36.585Z,1021.15
2019-03-20T10:31:36.576Z,1021.06
2019-03-20T10:32:36.594Z,1021.14
2019-03-20T10:33:36.651Z,1021.11
2019-03-20T10:34:39.688Z,1021.15
2019-03-20T10:35:36.534Z,1021.11
2019-03-20T10:36:36.533Z,1021.10
2019-03-20T10:37:36.515Z,1021.13
2019-03-20T10:38:36.505Z,1021.14
2019-03-20T10:39:36.521Z,1021.17
2019-03-20T10:40:36.472Z,1021.18
2019-03-20T10:41:36.460Z,1021.20
2019-03-20T10:42:36.450Z,1021.20
2019-03-20T10:43:37.082Z,1021.21
2019-03-20T10:44:36.468Z,1021.24
2019-03-20T10:45:36.453Z,1021.22
2019-03-20T10:46:36.454Z,1021.21
2019-03-20T10:47:36.401Z,1021.21
2019-03-20T10:48:36.388Z,1021.23
2019-03-20T10:49:37.090Z,1021.19
2019-03-20T10:50:36.389Z,1021.14
2019-03-20T10:51:36.362Z,1021.22
2019-03-20T10:52:36.339Z,1021.18
2019-03-20T10:53:36.346Z,1021.16
2019-03-20T10:54:36.372Z,1021.12
2019-03-20T10:55:36.309Z,1021.15
2019-03-20T10:56:36.294Z,1021.18
2019-03-20T10:57:36.294Z,1021.13
2019-03-20T10:58:36.274Z,1021.20
2019-03-20T10:59:36.308Z,1021.09
2019-03-20T11:00:36.255Z,1021.09
2019-03-20T11:01:42.530Z,1021.13
2019-03-20T11:02:36.351Z,1020.99
2019-03-20T11:03:36.241Z,1021.05
2019-03-20T11:04:36.288Z,1021.03
2019-03-20T11:05:36.234Z,1020.98
2019-03-20T11:06:36.257Z,1021.02
2019-03-20T11:07:36.269Z,1021.01
2019-03-20T11:08:36.203Z,1021.02
2019-03-20T11:09:36.164Z,1021.00
2019-03-20T11:10:36.176Z,1020.94
2019-03-20T11:11:36.134Z,1021.01
2019-03-20T11:12:36.121Z,1021.03
2019-03-20T11:13:36.122Z,1020.98
2019-03-20T11:14:36.147Z,1020.99
2019-03-20T11:15:36.095Z,1021.01
2019-03-20T11:16:36.141Z,1021.02
2019-03-20T11:17:36.064Z,1021.10
2019-03-20T11:18:36.083Z,1021.00
2019-03-20T11:19:36.051Z,1021.01
2019-03-20T11:20:36.121Z,1021.07
2019-03-20T11:21:36.026Z,1020.94
2019-03-20T11:22:36.015Z,1020.90
2019-03-20T11:23:36.012Z,1020.90
2019-03-20T11:24:35.994Z,1020.90
2019-03-20T11:25:35.992Z,1020.89
2019-03-20T11:26:35.992Z,1020.91
2019-03-20T11:27:36.566Z,1020.95
2019-03-20T11:28:35.951Z,1020.94
2019-03-20T11:29:35.939Z,1020.98
2019-03-20T11:30:35.918Z,1020.92
2019-03-20T11:31:35.950Z,1020.98
2019-03-20T11:32:35.924Z,1020.94
2019-03-20T11:33:35.973Z,1020.97
2019-03-20T11:34:35.920Z,1020.97
2019-03-20T11:35:35.875Z,1020.91
2019-03-20T11:36:35.861Z,1020.85
2019-03-20T11:37:35.844Z,1020.88
2019-03-20T11:38:35.843Z,1020.87
2019-03-20T11:39:35.861Z,1020.80
2019-03-20T11:40:35.815Z,1020.79
2019-03-20T11:41:35.813Z,1020.84
2019-03-20T11:42:36.118Z,1020.86
2019-03-20T11:43:35.805Z,1020.83
2019-03-20T11:44:35.792Z,1020.83
2019-03-20T11:45:35.762Z,1020.80
2019-03-20T11:46:35.748Z,1020.83
2019-03-20T11:47:35.769Z,1020.83
2019-03-20T11:48:35.726Z,1020.83
2019-03-20T11:49:35.749Z,1020.84
2019-03-20T11:50:35.703Z,1020.84
2019-03-20T11:51:36.567Z,1020.88
2019-03-20T11:52:35.687Z,1020.91
2019-03-20T11:53:35.678Z,1020.88
2019-03-20T11:54:35.691Z,1020.86
2019-03-20T11:55:35.674Z,1020.78
2019-03-20T11:56:35.639Z,1020.78
2019-03-20T11:57:35.634Z,1020.72
2019-03-20T11:58:35.616Z,1020.77
2019-03-20T11:59:35.624Z,1020.75
2019-03-20T12:00:35.590Z,1020.72
2019-03-20T12:01:35.589Z,1020.66
2019-03-20T12:02:35.571Z,1020.68
2019-03-20T12:03:35.563Z,1020.65
2019-03-20T12:04:35.548Z,1020.67
2019-03-20T12:05:35.583Z,1020.62
2019-03-20T12:06:35.527Z,1020.59
2019-03-20T12:07:35.537Z,1020.57
2019-03-20T12:08:35.515Z,1020.57
2019-03-20T12:09:41.040Z,1020.64